Time;durP1;ratioP1;P1;durP2;ratioP2;P2;SDS_P1;SDS_P2;PMS_P1;PMS_P2;Temp;Humidity;BMP_temperature;BMP_pressure;BME280_temperature;BME280_humidity;BME280_pressure;Samples;Min_cycle;Max_cycle;Signal;HPM_P1;HPM_P2
2024/04/24 00:01:55;;;;;;;11.82;2.85;;;;;;;3.63;nan;101023.22;5146172;27;20012;-94
2024/04/24 00:04:23;;;;;;;13.18;3.05;;;;;;;3.64;nan;101022.38;5145838;27;20001;-96
2024/04/24 00:06:49;;;;;;;12.70;2.97;;;;;;;3.84;nan;101021.97;5145715;27;20345;-95
2024/04/24 00:09:15;;;;;;;10.90;2.90;;;;;;;3.76;nan;101001.72;5146426;27;20020;-94
2024/04/24 00:11:40;;;;;;;13.50;3.10;;;;;;;3.69;nan;101002.72;5146243;27;20005;-94
2024/04/24 00:14:05;;;;;;;11.52;3.47;;;;;;;3.74;nan;101000.91;5146189;27;20005;-94
2024/04/24 00:16:32;;;;;;;10.48;3.42;;;;;;;3.89;nan;101001.47;5146325;27;20011;-94
2024/04/24 00:18:57;;;;;;;14.50;3.60;;;;;;;3.87;nan;100996.38;5147866;27;20020;-94
2024/04/24 00:21:23;;;;;;;6.03;2.58;;;;;;;3.89;nan;101006.56;5145164;27;20012;-94
2024/04/24 00:23:48;;;;;;;9.80;2.85;;;;;;;3.77;nan;100993.16;5145267;27;20008;-95
2024/04/24 00:26:13;;;;;;;10.55;3.22;;;;;;;3.67;nan;100988.28;5146401;27;20005;-95
2024/04/24 00:28:39;;;;;;;13.98;4.50;;;;;;;3.62;nan;100986.66;5149590;27;19997;-95
2024/04/24 00:31:04;;;;;;;6.47;2.67;;;;;;;3.67;nan;100971.25;5178289;27;20007;-96
2024/04/24 00:33:30;;;;;;;10.45;3.13;;;;;;;3.72;nan;100982.22;5177931;27;20437;-94
2024/04/24 00:35:55;;;;;;;11.38;3.53;;;;;;;3.77;nan;100977.84;5176124;27;20044;-93
2024/04/24 00:38:20;;;;;;;15.65;3.08;;;;;;;3.75;nan;100974.50;5176311;27;20003;-93
2024/04/24 00:40:46;;;;;;;7.72;3.33;;;;;;;3.85;nan;100963.22;5175768;27;20004;-93
2024/04/24 00:43:11;;;;;;;7.95;2.58;;;;;;;3.81;nan;100969.28;5166624;27;20001;-95
2024/04/24 00:45:37;;;;;;;9.45;2.63;;;;;;;3.72;nan;100959.25;5143461;27;20398;-94
2024/04/24 00:48:04;;;;;;;12.45;3.55;;;;;;;3.69;nan;100954.22;5146517;27;19997;-96
2024/04/24 00:50:30;;;;;;;7.82;2.50;;;;;;;3.94;nan;100964.72;5153166;27;20009;-94
2024/04/24 00:52:56;;;;;;;8.88;3.05;;;;;;;3.90;nan;100962.28;5185038;27;20026;-96
2024/04/24 00:55:22;;;;;;;15.13;3.30;;;;;;;4.07;nan;100958.50;5203853;27;20000;-94
2024/04/24 00:57:48;;;;;;;14.27;3.13;;;;;;;4.05;nan;100944.09;5170607;27;20009;-94
2024/04/24 01:00:13;;;;;;;9.90;3.42;;;;;;;3.93;nan;100946.91;5166608;27;20012;-93
2024/04/24 01:02:40;;;;;;;12.10;4.50;;;;;;;3.82;nan;100949.69;5162333;27;20005;-93
2024/04/24 01:05:06;;;;;;;16.83;3.53;;;;;;;4.06;nan;100943.19;5146654;27;20016;-93
2024/04/24 01:07:32;;;;;;;13.57;3.28;;;;;;;4.29;nan;100937.56;5160180;27;20004;-93
2024/04/24 01:09:58;;;;;;;9.10;2.75;;;;;;;4.22;nan;100939.44;5179342;27;20135;-94
2024/04/24 01:12:23;;;;;;;6.93;3.17;;;;;;;4.21;nan;100959.88;5178207;27;20436;-94
2024/04/24 01:14:48;;;;;;;8.52;2.97;;;;;;;4.19;nan;100961.63;5179617;27;20008;-96
2024/04/24 01:17:16;;;;;;;7.85;2.85;;;;;;;4.14;nan;100948.97;5150574;27;20211;-93
2024/04/24 01:19:47;;;;;;;16.08;3.45;;;;;;;4.18;nan;100945.47;5146160;27;20001;-94
2024/04/24 01:22:47;;;;;;;7.82;2.92;;;;;;;4.18;nan;100957.41;5178463;27;20016;-96
2024/04/24 01:25:23;;;;;;;12.45;3.75;;;;;;;4.00;nan;100954.41;5178989;27;20527;-94
2024/04/24 01:27:49;;;;;;;12.07;3.53;;;;;;;4.16;nan;100954.06;5146115;27;19997;-92
2024/04/24 01:30:15;;;;;;;19.48;3.97;;;;;;;4.15;nan;100950.66;5146050;27;20060;-92
2024/04/24 01:32:41;;;;;;;11.60;2.97;;;;;;;4.10;nan;100954.16;5162834;27;20024;-94
2024/04/24 01:35:07;;;;;;;9.27;4.35;;;;;;;3.98;nan;100947.66;5178208;27;20032;-93
2024/04/24 01:37:32;;;;;;;7.65;3.03;;;;;;;3.95;nan;100945.13;5178280;27;20029;-94
2024/04/24 01:39:58;;;;;;;6.07;2.70;;;;;;;3.83;nan;100933.50;5178868;27;20001;-94
2024/04/24 01:42:23;;;;;;;11.30;2.95;;;;;;;3.82;nan;100942.00;5148283;27;20040;-93
2024/04/24 01:44:48;;;;;;;13.77;3.40;;;;;;;3.74;nan;100938.78;5146072;27;20013;-93
2024/04/24 01:47:14;;;;;;;14.85;4.05;;;;;;;3.74;nan;100939.63;5146401;27;20005;-94
2024/04/24 01:49:39;;;;;;;10.85;3.30;;;;;;;3.77;nan;100929.34;5145529;27;20013;-92
2024/04/24 01:52:05;;;;;;;13.25;3.53;;;;;;;3.88;nan;100935.94;5153759;27;20349;-94
2024/04/24 01:54:30;;;;;;;8.70;4.45;;;;;;;3.91;nan;100930.78;5178707;27;19996;-95
2024/04/24 01:56:55;;;;;;;6.72;3.25;;;;;;;4.08;nan;100921.03;5178815;27;20428;-94
2024/04/24 01:59:21;;;;;;;8.10;3.72;;;;;;;4.07;nan;100932.09;5177223;27;19997;-94
2024/04/24 02:01:46;;;;;;;15.38;3.92;;;;;;;3.78;nan;100920.84;5157296;27;20466;-95
2024/04/24 02:04:11;;;;;;;13.65;3.42;;;;;;;3.64;nan;100922.84;5146200;27;20001;-95
2024/04/24 02:06:37;;;;;;;10.23;4.75;;;;;;;3.68;nan;100918.50;5147220;27;20017;-95
2024/04/24 02:09:02;;;;;;;13.25;3.58;;;;;;;3.67;nan;100917.66;5146396;27;20029;-96
2024/04/24 02:11:28;;;;;;;7.63;2.83;;;;;;;3.62;nan;100905.00;5155750;27;20009;-95
2024/04/24 02:13:53;;;;;;;13.57;3.55;;;;;;;3.52;nan;100908.63;5177673;27;20000;-95
2024/04/24 02:16:18;;;;;;;9.98;3.05;;;;;;;3.54;nan;100891.56;5178815;27;20076;-94
2024/04/24 02:18:44;;;;;;;18.50;3.63;;;;;;;3.56;nan;100902.59;5177798;27;20325;-95
2024/04/24 02:21:09;;;;;;;15.20;3.20;;;;;;;3.64;nan;100903.25;5168588;27;20013;-93
2024/04/24 02:23:35;;;;;;;9.85;3.47;;;;;;;3.49;nan;100889.94;5145413;27;20085;-94
2024/04/24 02:26:07;;;;;;;15.02;4.32;;;;;;;3.50;nan;100892.47;5146153;27;20008;-94
2024/04/24 02:28:33;;;;;;;10.43;2.80;;;;;;;3.47;nan;100894.28;5145584;27;20033;-95
2024/04/24 02:30:59;;;;;;;9.73;3.33;;;;;;;3.50;nan;100906.97;5161865;27;20456;-94
2024/04/24 02:33:25;;;;;;;9.82;2.92;;;;;;;3.42;nan;100886.72;5144956;27;20004;-95
2024/04/24 02:35:50;;;;;;;10.63;3.45;;;;;;;3.39;nan;100886.75;5163958;27;20005;-94
2024/04/24 02:38:16;;;;;;;12.07;3.40;;;;;;;3.44;nan;100890.06;5178474;27;20000;-94
2024/04/24 02:40:41;;;;;;;11.75;3.03;;;;;;;3.38;nan;100877.44;5178177;27;20000;-96
2024/04/24 02:43:07;;;;;;;9.10;3.00;;;;;;;3.48;nan;100885.75;5175580;27;20019;-95
2024/04/24 02:45:32;;;;;;;11.63;2.65;;;;;;;3.51;nan;100890.78;5177955;27;20019;-94
2024/04/24 02:47:57;;;;;;;14.05;3.88;;;;;;;3.47;nan;100874.69;5177855;27;19992;-95
2024/04/24 02:50:23;;;;;;;8.35;2.75;;;;;;;3.38;nan;100875.72;5169739;27;20503;-93
2024/04/24 02:52:49;;;;;;;7.93;3.17;;;;;;;3.33;nan;100872.41;5175429;27;20019;-95
2024/04/24 02:55:15;;;;;;;9.98;2.80;;;;;;;3.35;nan;100873.22;5180493;27;20016;-95
2024/04/24 02:57:40;;;;;;;11.65;3.38;;;;;;;3.26;nan;100860.66;5184190;27;20001;-95
2024/04/24 03:00:06;;;;;;;7.38;2.53;;;;;;;3.27;nan;100858.94;5185057;27;20008;-94
2024/04/24 03:02:33;;;;;;;6.38;2.40;;;;;;;3.28;nan;100853.81;5184214;27;20040;-94
2024/04/24 03:05:02;;;;;;;14.98;2.72;;;;;;;3.31;nan;100866.50;5185634;27;20047;-96
2024/04/24 03:07:27;;;;;;;14.18;3.38;;;;;;;3.39;nan;100861.25;5152877;27;20005;-95
2024/04/24 03:09:56;;;;;;;13.32;2.88;;;;;;;3.38;nan;100865.50;5155023;27;20028;-96
2024/04/24 03:12:23;;;;;;;11.05;2.92;;;;;;;3.38;nan;100869.78;5164867;27;20009;-95
2024/04/24 03:14:48;;;;;;;7.53;2.88;;;;;;;3.48;nan;100873.81;5151840;27;20005;-94
2024/04/24 03:17:14;;;;;;;7.40;2.75;;;;;;;3.40;nan;100858.66;5152645;27;20016;-94
2024/04/24 03:19:39;;;;;;;8.40;3.22;;;;;;;3.45;nan;100858.56;5154967;27;20001;-95
2024/04/24 03:22:05;;;;;;;17.20;4.40;;;;;;;3.57;nan;100853.19;5174622;27;20023;-96
2024/04/24 03:24:34;;;;;;;13.18;3.72;;;;;;;3.69;nan;100866.56;5163261;27;20036;-95
2024/04/24 03:26:59;;;;;;;16.98;4.85;;;;;;;3.60;nan;100854.84;5187463;27;19996;-96
2024/04/24 03:29:25;;;;;;;16.83;4.47;;;;;;;3.61;nan;100856.53;5186749;27;20012;-95
2024/04/24 03:31:50;;;;;;;12.93;4.50;;;;;;;3.64;nan;100854.75;5185423;27;20004;-96
2024/04/24 03:34:16;;;;;;;16.15;4.32;;;;;;;3.68;nan;100847.84;5185599;27;20075;-95
2024/04/24 03:36:42;;;;;;;14.20;4.22;;;;;;;3.67;nan;100840.25;5188658;27;20005;-94
2024/04/24 03:39:07;;;;;;;11.88;4.10;;;;;;;3.65;nan;100842.81;5181832;27;20052;-96
2024/04/24 03:41:33;;;;;;;17.00;4.20;;;;;;;3.63;nan;100842.00;5162905;27;20012;-96
2024/04/24 03:43:58;;;;;;;11.52;4.55;;;;;;;3.71;nan;100852.06;5153476;27;19993;-94
2024/04/24 03:46:24;;;;;;;11.85;3.45;;;;;;;3.64;nan;100836.03;5154926;27;20251;-96
2024/04/24 03:48:51;;;;;;;7.18;2.92;;;;;;;3.69;nan;100839.34;5151783;27;20007;-96
2024/04/24 03:51:16;;;;;;;18.38;4.18;;;;;;;3.70;nan;100830.78;5153613;27;20001;-95
2024/04/24 03:53:42;;;;;;;18.20;4.00;;;;;;;3.73;nan;100825.63;5183378;27;20005;-96
2024/04/24 03:56:07;;;;;;;13.90;4.05;;;;;;;3.76;nan;100829.84;5185739;27;20000;-96
2024/04/24 03:58:33;;;;;;;11.48;3.55;;;;;;;3.78;nan;100817.84;5186521;27;20016;-95
2024/04/24 04:00:58;;;;;;;18.13;3.83;;;;;;;3.72;nan;100818.84;5185053;27;20456;-95
2024/04/24 04:03:25;;;;;;;14.50;4.13;;;;;;;3.78;nan;100815.28;5184291;27;20076;-95
2024/04/24 04:05:51;;;;;;;11.57;4.03;;;;;;;3.76;nan;100811.97;5186748;27;19989;-95
2024/04/24 04:08:16;;;;;;;16.13;4.18;;;;;;;3.85;nan;100820.25;5183661;27;20015;-94
2024/04/24 04:10:42;;;;;;;8.55;3.85;;;;;;;3.75;nan;100818.75;5183862;27;20352;-95
2024/04/24 04:13:07;;;;;;;10.88;4.15;;;;;;;3.75;nan;100817.91;5212071;27;20007;-95
2024/04/24 04:15:33;;;;;;;12.68;4.78;;;;;;;3.77;nan;100813.63;5189496;27;20048;-94
2024/04/24 04:17:58;;;;;;;14.52;4.18;;;;;;;3.78;nan;100818.72;5184375;27;20004;-95
2024/04/24 04:20:24;;;;;;;15.82;4.45;;;;;;;3.82;nan;100819.47;5183532;27;20016;-94
2024/04/24 04:22:49;;;;;;;13.35;4.00;;;;;;;3.78;nan;100818.72;5186554;27;20019;-94
2024/04/24 04:25:15;;;;;;;11.60;4.55;;;;;;;3.72;nan;100806.06;5185385;27;20004;-95
2024/04/24 04:27:40;;;;;;;14.13;4.35;;;;;;;3.83;nan;100804.13;5187258;27;20012;-94
2024/04/24 04:30:06;;;;;;;10.63;4.18;;;;;;;3.77;nan;100801.69;5189479;27;20015;-94
2024/04/24 04:32:32;;;;;;;17.75;4.90;;;;;;;3.77;nan;100806.81;5189458;27;20080;-94
2024/04/24 04:34:57;;;;;;;14.55;4.43;;;;;;;3.86;nan;100806.59;5187469;27;20004;-95
2024/04/24 04:37:23;;;;;;;9.50;3.90;;;;;;;3.87;nan;100799.75;5184903;27;20012;-94
2024/04/24 04:39:49;;;;;;;15.85;4.45;;;;;;;3.84;nan;100802.41;5180811;27;20016;-95
2024/04/24 04:42:14;;;;;;;9.23;3.55;;;;;;;3.97;nan;100810.59;5162268;27;20015;-95
2024/04/24 04:44:40;;;;;;;10.52;4.05;;;;;;;3.95;nan;100807.22;5185251;27;20016;-96
2024/04/24 04:47:06;;;;;;;10.77;3.85;;;;;;;3.93;nan;100798.78;5184054;27;20020;-95
2024/04/24 04:49:31;;;;;;;11.65;3.80;;;;;;;4.06;nan;100807.81;5162737;27;20460;-95
2024/04/24 04:51:56;;;;;;;13.98;5.78;;;;;;;4.06;nan;100818.03;5153327;27;19997;-94
2024/04/24 04:54:22;;;;;;;12.38;4.88;;;;;;;3.98;nan;100804.63;5152110;27;20340;-95
2024/04/24 04:56:47;;;;;;;20.05;4.80;;;;;;;3.92;nan;100802.22;5151659;27;19997;-95
2024/04/24 04:59:13;;;;;;;12.23;5.53;;;;;;;3.95;nan;100799.56;5150287;27;20001;-96
2024/04/24 05:01:38;;;;;;;14.23;5.18;;;;;;;4.01;nan;100787.50;5152430;27;20005;-96
2024/04/24 05:04:04;;;;;;;10.82;4.25;;;;;;;4.01;nan;100794.31;5151139;27;20025;-94
2024/04/24 05:06:29;;;;;;;12.57;4.85;;;;;;;4.07;nan;100794.16;5152250;27;20005;-93
2024/04/24 05:08:55;;;;;;;11.93;5.22;;;;;;;4.04;nan;100773.81;5178572;27;20420;-95
2024/04/24 05:11:20;;;;;;;12.95;4.95;;;;;;;4.12;nan;100771.06;5167781;27;20019;-95
2024/04/24 05:13:46;;;;;;;11.02;4.50;;;;;;;4.20;nan;100764.88;5151416;27;20001;-95
2024/04/24 05:16:12;;;;;;;13.95;4.32;;;;;;;4.23;nan;100767.34;5151472;27;20056;-93
2024/04/24 05:18:41;;;;;;;17.67;4.22;;;;;;;4.19;nan;100778.53;5176328;27;20018;-96
2024/04/24 05:21:07;;;;;;;9.20;3.72;;;;;;;4.24;nan;100776.72;5183207;27;20008;-96
2024/04/24 05:23:33;;;;;;;6.32;3.95;;;;;;;4.26;nan;100779.22;5183192;27;19996;-95
2024/04/24 05:29:03;;;;;;;11.02;4.78;;;;;;;4.19;nan;100758.09;5182705;27;20008;-95
2024/04/24 05:29:03;;;;;;;11.23;4.30;;;;;;;4.30;nan;100773.16;5186279;27;20024;-94
2024/04/24 05:31:29;;;;;;;9.07;4.82;;;;;;;4.24;nan;100766.50;5150985;27;20041;-95
2024/04/24 05:33:54;;;;;;;9.73;4.38;;;;;;;4.14;nan;100749.69;5149094;27;20437;-94
2024/04/24 05:36:20;;;;;;;8.95;4.85;;;;;;;4.22;nan;100763.13;5159094;27;20012;-95
2024/04/24 05:38:45;;;;;;;15.20;5.50;;;;;;;4.24;nan;100765.63;5170989;27;20084;-94
2024/04/24 05:41:11;;;;;;;16.75;5.20;;;;;;;4.14;nan;100769.31;5177443;27;20005;-94
2024/04/24 05:43:36;;;;;;;10.02;4.90;;;;;;;4.14;nan;100759.94;5178331;27;20004;-95
2024/04/24 05:46:02;;;;;;;14.13;5.22;;;;;;;4.17;nan;100754.75;5207198;27;20343;-96
2024/04/24 05:48:27;;;;;;;11.93;4.97;;;;;;;4.16;nan;100753.06;5159810;27;20025;-95
2024/04/24 05:50:53;;;;;;;13.27;5.40;;;;;;;4.19;nan;100752.97;5185606;27;20004;-95
2024/04/24 05:53:18;;;;;;;14.52;5.95;;;;;;;4.25;nan;100750.28;5185461;27;20007;-96
2024/04/24 05:55:44;;;;;;;13.95;4.78;;;;;;;4.28;nan;100746.81;5189345;27;20000;-96
2024/04/24 05:58:09;;;;;;;10.57;5.25;;;;;;;4.36;nan;100754.25;5156043;27;19997;-95
2024/04/24 06:00:35;;;;;;;12.70;5.68;;;;;;;4.57;nan;100746.00;5153809;27;19997;-95
2024/04/24 06:03:00;;;;;;;13.95;4.90;;;;;;;4.76;nan;100748.06;5150721;27;20005;-96
2024/04/24 06:05:26;;;;;;;17.45;5.75;;;;;;;4.75;nan;100734.41;5171735;27;20028;-96
2024/04/24 06:07:51;;;;;;;14.98;5.53;;;;;;;4.55;nan;100731.59;5159435;27;20001;-96
2024/04/24 06:10:17;;;;;;;15.40;5.35;;;;;;;4.53;nan;100725.69;5165559;27;20009;-96
2024/04/24 06:12:43;;;;;;;8.27;4.60;;;;;;;4.56;nan;100723.91;5186402;27;20550;-96
2024/04/24 06:15:08;;;;;;;11.10;4.93;;;;;;;4.75;nan;100736.16;5184518;27;19997;-95
2024/04/24 06:17:34;;;;;;;11.80;4.78;;;;;;;4.85;nan;100728.19;5175890;27;20005;-96
2024/04/24 06:19:59;;;;;;;19.73;5.80;;;;;;;4.93;nan;100710.06;5164347;27;20005;-96
2024/04/24 06:27:36;;;;;;;17.13;5.15;;;;;;;5.43;nan;100720.44;5981760;22;20014;-95
2024/04/24 06:32:31;;;;;;;17.88;5.95;;;;;;;5.85;nan;100730.19;5155177;27;20020;-96
2024/04/24 06:34:57;;;;;;;13.07;5.10;;;;;;;5.96;nan;100719.63;5157015;27;20363;-96
2024/04/24 06:37:22;;;;;;;13.43;5.47;;;;;;;6.15;nan;100730.09;5150996;27;19997;-95
2024/04/24 06:39:47;;;;;;;22.42;6.45;;;;;;;6.20;nan;100729.03;5148865;27;20004;-95
2024/04/24 06:42:13;;;;;;;17.13;5.85;;;;;;;6.32;nan;100722.66;5149729;27;20001;-96
2024/04/24 06:44:38;;;;;;;11.18;5.32;;;;;;;6.31;nan;100728.63;5147607;27;19997;-96
2024/04/24 06:47:06;;;;;;;16.48;5.93;;;;;;;6.43;nan;100725.66;5150786;27;20033;-95
2024/04/24 06:49:33;;;;;;;17.25;6.68;;;;;;;6.55;nan;100723.53;5148471;27;19997;-96
2024/04/24 06:51:59;;;;;;;19.10;5.85;;;;;;;6.69;nan;100711.06;5149899;27;20448;-96
2024/04/24 06:54:25;;;;;;;16.55;5.55;;;;;;;6.90;nan;100721.41;5148846;27;20048;-96
2024/04/24 06:56:50;;;;;;;12.30;4.72;;;;;;;6.98;nan;100724.53;5148696;27;20001;-95
2024/04/24 06:59:16;;;;;;;11.65;4.65;;;;;;;7.18;nan;100731.47;5151820;27;20005;-94
2024/04/24 07:01:41;;;;;;;24.58;6.07;;;;;;;7.22;nan;100731.28;5180950;27;20010;-94
2024/04/24 07:04:06;;;;;;;17.17;5.45;;;;;;;7.20;nan;100730.50;5182411;27;19996;-96
2024/04/24 07:06:32;;;;;;;18.45;5.88;;;;;;;7.28;nan;100731.03;5181478;27;20012;-96
2024/04/24 07:08:57;;;;;;;10.95;5.43;;;;;;;7.36;nan;100732.47;5182062;27;20011;-95
2024/04/24 07:11:23;;;;;;;16.15;5.85;;;;;;;7.42;nan;100727.09;5181939;27;20014;-95
2024/04/24 07:13:48;;;;;;;11.07;5.82;;;;;;;7.39;nan;100722.06;5181979;27;20012;-95
2024/04/24 07:16:13;;;;;;;15.75;5.38;;;;;;;7.48;nan;100737.13;5181471;27;20001;-96
2024/04/24 07:18:39;;;;;;;20.98;6.82;;;;;;;7.48;nan;100730.25;5181146;27;20000;-95
2024/04/24 07:21:04;;;;;;;14.73;5.60;;;;;;;7.63;nan;100731.38;5181281;27;20000;-96
2024/04/24 07:23:30;;;;;;;17.65;5.30;;;;;;;7.68;nan;100726.03;5179749;27;20011;-96
2024/04/24 07:25:56;;;;;;;13.15;5.50;;;;;;;7.72;nan;100728.41;5179976;27;20001;-95
2024/04/24 07:28:21;;;;;;;19.05;5.55;;;;;;;7.82;nan;100730.63;5179855;27;20011;-96
2024/04/24 07:30:47;;;;;;;14.88;4.75;;;;;;;7.87;nan;100733.81;5178763;27;20005;-95
2024/04/24 07:33:13;;;;;;;13.18;4.78;;;;;;;7.89;nan;100729.47;5179044;27;20432;-95
2024/04/24 07:35:38;;;;;;;14.60;5.57;;;;;;;8.05;nan;100737.38;5174045;27;20005;-96
2024/04/24 07:38:04;;;;;;;16.33;5.13;;;;;;;8.10;nan;100735.44;5148678;27;20541;-95
2024/04/24 07:40:29;;;;;;;15.02;5.85;;;;;;;8.08;nan;100729.53;5179514;27;20001;-96
2024/04/24 07:42:55;;;;;;;19.25;6.68;;;;;;;8.12;nan;100726.78;5180251;27;20336;-95
2024/04/24 07:45:20;;;;;;;21.52;5.00;;;;;;;8.15;nan;100734.34;5180756;27;19996;-94
2024/04/24 07:47:46;;;;;;;14.07;3.03;;;;;;;8.23;nan;100740.91;5180725;27;20072;-95
2024/04/24 07:50:11;;;;;;;13.25;4.35;;;;;;;8.08;nan;100732.94;5180504;27;20336;-95
2024/04/24 07:52:37;;;;;;;11.60;4.20;;;;;;;8.20;nan;100735.91;5180759;27;20471;-94
2024/04/24 07:55:09;;;;;;;15.48;3.47;;;;;;;8.26;nan;100733.03;5180720;27;20000;-95
2024/04/24 07:57:34;;;;;;;17.05;4.10;;;;;;;8.38;nan;100729.13;5176862;27;20004;-94
2024/04/24 08:00:00;;;;;;;12.40;3.38;;;;;;;8.59;nan;100732.53;5163670;27;20015;-95
2024/04/24 08:02:25;;;;;;;18.08;3.50;;;;;;;8.71;nan;100737.94;5178277;27;20000;-95
2024/04/24 08:04:50;;;;;;;13.57;3.28;;;;;;;8.79;nan;100735.03;5177640;27;20000;-94
2024/04/24 08:07:16;;;;;;;13.15;3.30;;;;;;;8.88;nan;100732.03;5177324;27;20053;-93
2024/04/24 08:09:41;;;;;;;21.20;3.83;;;;;;;9.08;nan;100725.13;5181760;27;20374;-94
2024/04/24 08:12:07;;;;;;;16.25;3.92;;;;;;;9.21;nan;100733.94;5178100;27;20080;-94
2024/04/24 08:14:32;;;;;;;11.05;3.53;;;;;;;9.46;nan;100725.06;5178334;27;20001;-94
2024/04/24 08:16:57;;;;;;;22.15;4.13;;;;;;;9.65;nan;100733.56;5176796;27;20099;-93
2024/04/24 08:19:23;;;;;;;25.60;5.20;;;;;;;9.66;nan;100727.50;5183261;27;20011;-95
2024/04/24 08:21:48;;;;;;;20.73;4.90;;;;;;;10.02;nan;100722.28;5180187;27;20004;-95
2024/04/24 08:24:13;;;;;;;16.08;3.95;;;;;;;10.12;nan;100722.63;5176445;27;20008;-95
2024/04/24 08:26:39;;;;;;;12.75;3.03;;;;;;;10.12;nan;100719.19;5178716;27;20000;-93
2024/04/24 08:29:04;;;;;;;14.18;3.20;;;;;;;10.24;nan;100719.44;5183608;27;20011;-93
2024/04/24 08:31:29;;;;;;;17.33;3.80;;;;;;;10.15;nan;100719.91;5178101;27;20000;-94
2024/04/24 08:33:55;;;;;;;14.13;3.53;;;;;;;10.39;nan;100717.84;5177376;27;20011;-94
2024/04/24 08:36:20;;;;;;;12.02;3.53;;;;;;;10.60;nan;100721.00;5178956;27;20000;-94
2024/04/24 08:38:45;;;;;;;17.17;4.88;;;;;;;10.80;nan;100719.97;5178612;27;20000;-95
2024/04/24 08:41:12;;;;;;;18.95;3.80;;;;;;;11.32;nan;100730.03;5176681;27;20012;-94
2024/04/24 08:43:41;;;;;;;10.82;3.35;;;;;;;11.39;nan;100720.19;5178236;27;19997;-95
2024/04/24 08:46:10;;;;;;;12.55;3.10;;;;;;;11.14;nan;100716.38;5171030;27;20004;-95
2024/04/24 08:48:40;;;;;;;22.50;4.10;;;;;;;11.48;nan;100726.56;5142627;27;20013;-96
2024/04/24 08:51:06;;;;;;;15.10;3.97;;;;;;;11.69;nan;100722.75;5145876;27;19997;-95
2024/04/24 08:53:33;;;;;;;9.77;3.55;;;;;;;11.43;nan;100719.06;5172160;27;20001;-93
2024/04/24 08:55:59;;;;;;;14.30;4.07;;;;;;;11.50;nan;100722.97;5146102;27;20046;-94
2024/04/24 08:58:26;;;;;;;11.82;3.15;;;;;;;11.59;nan;100725.97;5144178;27;20001;-95
2024/04/24 09:00:54;;;;;;;20.95;3.95;;;;;;;11.30;nan;100721.50;5142995;27;20001;-95
2024/04/24 09:03:32;;;;;;;17.98;3.72;;;;;;;11.28;nan;100719.94;5144607;27;20012;-94
2024/04/24 09:06:01;;;;;;;16.35;3.60;;;;;;;11.43;nan;100726.81;5144327;27;20340;-93
2024/04/24 09:08:29;;;;;;;19.77;4.28;;;;;;;11.31;nan;100722.34;5146916;27;20468;-94
2024/04/24 09:10:55;;;;;;;14.27;4.07;;;;;;;11.02;nan;100719.63;5151510;27;20013;-93
2024/04/24 09:13:21;;;;;;;13.52;3.67;;;;;;;10.77;nan;100727.03;5151321;27;20452;-94
2024/04/24 09:15:47;;;;;;;12.73;6.45;;;;;;;10.75;nan;100726.28;5152615;27;20482;-95
2024/04/24 09:18:13;;;;;;;17.52;6.30;;;;;;;10.34;nan;100734.44;5171813;27;20023;-95
2024/04/24 09:20:43;;;;;;;20.50;5.70;;;;;;;10.14;nan;100741.44;5156437;27;20028;-95
2024/04/24 09:23:13;;;;;;;11.63;4.03;;;;;;;10.11;nan;100744.16;5179967;27;20004;-95
2024/04/24 09:25:39;;;;;;;21.55;4.53;;;;;;;9.86;nan;100744.56;5155685;27;20001;-96
2024/04/24 09:28:05;;;;;;;22.73;4.35;;;;;;;9.51;nan;100743.69;5148857;27;20012;-96
2024/04/24 09:30:31;;;;;;;10.30;3.97;;;;;;;9.36;nan;100751.28;5149502;27;20015;-94
2024/04/24 09:32:56;;;;;;;23.63;5.35;;;;;;;9.35;nan;100749.59;5149150;27;20001;-95
2024/04/24 09:35:22;;;;;;;16.92;4.97;;;;;;;9.32;nan;100742.00;5148157;27;20009;-94
2024/04/24 09:37:47;;;;;;;13.65;4.43;;;;;;;9.31;nan;100737.75;5151295;27;20001;-95
2024/04/24 09:40:13;;;;;;;14.07;3.78;;;;;;;9.39;nan;100721.97;5148665;27;20001;-95
2024/04/24 09:42:38;;;;;;;18.42;4.80;;;;;;;10.02;nan;100714.53;5146578;27;20085;-93
2024/04/24 09:45:04;;;;;;;10.25;3.80;;;;;;;11.01;nan;100711.97;5146624;27;20001;-95
2024/04/24 09:47:30;;;;;;;13.63;3.30;;;;;;;11.32;nan;100718.84;5172600;27;20005;-95
2024/04/24 09:49:56;;;;;;;12.60;3.53;;;;;;;11.60;nan;100710.34;5149308;27;20019;-94
2024/04/24 09:52:22;;;;;;;10.40;3.30;;;;;;;11.95;nan;100710.94;5151408;27;20046;-96
2024/04/24 09:54:50;;;;;;;12.07;3.25;;;;;;;12.40;nan;100714.28;5160468;27;19997;-96
2024/04/24 09:57:23;;;;;;;16.00;3.60;;;;;;;12.30;nan;100702.81;5152193;27;20036;-96
2024/04/24 09:59:57;;;;;;;14.40;3.55;;;;;;;13.04;nan;100718.97;5147620;27;20009;-95
2024/04/24 10:02:30;;;;;;;15.88;4.25;;;;;;;12.99;nan;100710.66;5147540;27;20001;-95
2024/04/24 10:05:06;;;;;;;10.80;3.50;;;;;;;13.45;nan;100699.97;5145841;27;20416;-94
2024/04/24 10:07:38;;;;;;;8.98;3.08;;;;;;;13.71;nan;100708.66;5147928;27;20009;-94
2024/04/24 10:10:08;;;;;;;8.80;2.85;;;;;;;14.04;nan;100705.53;5148004;27;20453;-96
2024/04/24 10:12:42;;;;;;;9.07;2.60;;;;;;;14.41;nan;100699.59;5148039;27;20073;-94
2024/04/24 10:15:09;;;;;;;19.88;3.45;;;;;;;14.40;nan;100697.94;5145976;27;19997;-95
2024/04/24 10:17:35;;;;;;;20.40;3.65;;;;;;;14.87;nan;100699.81;5162958;27;20009;-93
2024/04/24 10:20:05;;;;;;;11.23;3.67;;;;;;;14.78;nan;100697.91;5146488;27;20427;-94
2024/04/24 10:22:33;;;;;;;13.40;3.05;;;;;;;14.93;nan;100698.56;5146715;27;20005;-95
2024/04/24 10:25:03;;;;;;;9.10;3.35;;;;;;;14.85;nan;100696.53;5145254;27;20001;-95
2024/04/24 10:27:29;;;;;;;10.13;3.10;;;;;;;14.90;nan;100699.63;5148550;27;20639;-94
2024/04/24 10:29:56;;;;;;;8.30;2.90;;;;;;;15.02;nan;100697.06;5148700;27;20001;-94
2024/04/24 10:32:26;;;;;;;12.32;3.33;;;;;;;15.31;nan;100693.19;5146627;27;20005;-94
2024/04/24 10:34:54;;;;;;;12.10;4.68;;;;;;;15.73;nan;100688.38;5143231;27;20456;-92
2024/04/24 10:37:20;;;;;;;6.93;3.40;;;;;;;16.21;nan;100690.78;5145514;27;20008;-94
2024/04/24 10:39:46;;;;;;;13.18;3.40;;;;;;;16.12;nan;100696.72;5144185;27;20001;-92
2024/04/24 10:42:15;;;;;;;13.27;2.70;;;;;;;15.56;nan;100689.63;5144355;27;20001;-94
2024/04/24 10:44:42;;;;;;;14.05;3.25;;;;;;;14.46;nan;100685.38;5165200;27;20331;-93
2024/04/24 10:47:08;;;;;;;11.48;3.75;;;;;;;13.74;nan;100692.03;5177561;27;20078;-93
2024/04/24 10:49:33;;;;;;;13.48;3.08;;;;;;;13.46;nan;100683.47;5179599;27;20003;-93
2024/04/24 10:51:59;;;;;;;14.40;3.40;;;;;;;13.49;nan;100691.91;5178007;27;20000;-94
2024/04/24 10:54:28;;;;;;;11.02;2.60;;;;;;;13.37;nan;100684.09;5177343;27;20075;-95
2024/04/24 10:56:56;;;;;;;7.75;2.35;;;;;;;12.91;nan;100693.03;5177320;27;20004;-94
2024/04/24 10:59:32;;;;;;;10.77;2.88;;;;;;;12.83;nan;100679.72;5177409;27;20083;-94
2024/04/24 11:02:17;;;;;;;10.73;3.05;;;;;;;13.26;nan;100679.56;5177217;27;20012;-93
2024/04/24 11:04:44;;;;;;;8.18;2.65;;;;;;;13.73;nan;100667.88;5177388;27;20004;-93
2024/04/24 11:07:10;;;;;;;10.88;4.55;;;;;;;13.85;nan;100666.19;5177186;27;20474;-94
2024/04/24 11:09:38;;;;;;;9.93;3.65;;;;;;;14.92;nan;100663.97;5176904;27;20000;-93
2024/04/24 11:12:04;;;;;;;5.55;2.45;;;;;;;16.22;nan;100661.19;5178643;27;20015;-94
2024/04/24 11:14:40;;;;;;;4.78;2.15;;;;;;;16.61;nan;100648.59;5171667;27;20496;-93
2024/04/24 11:17:06;;;;;;;6.70;2.40;;;;;;;17.03;nan;100659.16;5174997;27;20343;-94
2024/04/24 11:19:31;;;;;;;9.60;2.10;;;;;;;17.27;nan;100645.91;5177009;27;20007;-94
2024/04/24 11:21:57;;;;;;;7.43;2.50;;;;;;;16.79;nan;100654.16;5176832;27;20012;-93
2024/04/24 11:24:29;;;;;;;7.93;2.58;;;;;;;16.23;nan;100639.41;5177392;27;20317;-93
2024/04/24 11:26:55;;;;;;;9.00;2.60;;;;;;;15.43;nan;100644.63;5177219;27;20005;-95
2024/04/24 11:29:20;;;;;;;6.03;2.55;;;;;;;15.27;nan;100644.13;5178767;27;20079;-92
2024/04/24 11:31:48;;;;;;;5.68;2.38;;;;;;;16.29;nan;100632.06;5176973;27;20436;-93
2024/04/24 11:34:14;;;;;;;8.32;2.63;;;;;;;16.93;nan;100632.19;5177360;27;20004;-95
2024/04/24 11:36:41;;;;;;;7.18;2.40;;;;;;;17.75;nan;100623.66;5178853;27;20040;-93
2024/04/24 11:39:07;;;;;;;11.45;2.75;;;;;;;16.58;nan;100628.00;5176184;27;20000;-95
2024/04/24 11:41:36;;;;;;;7.10;2.65;;;;;;;16.30;nan;100631.13;5176778;27;20012;-93
2024/04/24 11:44:06;;;;;;;6.60;2.33;;;;;;;16.11;nan;100616.94;5172936;27;20004;-93
2024/04/24 11:46:32;;;;;;;7.57;2.30;;;;;;;16.15;nan;100623.56;5176883;27;20011;-93